createdAt,value
2023-05-07T00:01:36.904Z,31.83
2023-05-07T00:04:05.332Z,29.58
2023-05-07T00:06:34.572Z,27.67
2023-05-07T00:09:05.303Z,30.17
2023-05-07T00:11:34.133Z,30.10
2023-05-07T00:14:02.959Z,26.48
2023-05-07T00:16:31.008Z,27.23
2023-05-07T00:18:59.061Z,29.27
2023-05-07T00:21:28.160Z,28.90
2023-05-07T00:23:56.218Z,28.27
2023-05-07T00:26:25.685Z,29.20
2023-05-07T00:28:53.657Z,28.10
2023-05-07T00:31:21.692Z,28.70
2023-05-07T00:33:49.627Z,31.08
2023-05-07T00:36:17.548Z,29.30
2023-05-07T00:38:45.532Z,29.92
2023-05-07T00:41:13.522Z,29.33
2023-05-07T00:43:43.399Z,32.50
2023-05-07T00:46:12.764Z,30.52
2023-05-07T00:48:40.924Z,30.77
2023-05-07T00:51:08.875Z,30.60
2023-05-07T00:53:37.255Z,29.85
2023-05-07T00:56:07.397Z,33.25
2023-05-07T00:58:35.857Z,31.23
2023-05-07T01:01:05.457Z,29.52
2023-05-07T01:03:33.419Z,29.90
2023-05-07T01:06:03.295Z,30.05
2023-05-07T01:08:33.069Z,37.15
2023-05-07T01:11:02.530Z,31.95
2023-05-07T01:13:31.012Z,31.75
2023-05-07T01:15:59.056Z,31.52
2023-05-07T01:18:29.861Z,33.38
2023-05-07T01:21:00.230Z,33.03
2023-05-07T01:23:30.208Z,33.45
2023-05-07T01:25:58.431Z,31.05
2023-05-07T01:28:26.791Z,33.30
2023-05-07T01:30:58.030Z,33.58
2023-05-07T01:33:26.666Z,33.75
2023-05-07T01:35:55.823Z,31.30
2023-05-07T01:38:24.529Z,31.77
2023-05-07T01:40:54.810Z,32.10
2023-05-07T01:43:22.881Z,32.40
2023-05-07T01:45:51.200Z,34.65
2023-05-07T01:48:19.943Z,35.13
2023-05-07T01:50:49.261Z,34.47
2023-05-07T01:53:17.311Z,32.97
2023-05-07T01:55:46.280Z,35.35
2023-05-07T01:58:15.712Z,35.47
2023-05-07T02:00:43.746Z,34.95
2023-05-07T02:03:11.845Z,35.03
2023-05-07T02:05:39.972Z,35.25
2023-05-07T02:08:07.965Z,33.33
2023-05-07T02:10:37.055Z,30.92
2023-05-07T02:13:05.100Z,30.55
2023-05-07T02:15:34.507Z,32.80
2023-05-07T02:18:04.836Z,31.40
2023-05-07T02:20:32.951Z,27.98
2023-05-07T02:23:01.310Z,29.85
2023-05-07T02:25:30.210Z,30.67
2023-05-07T02:27:58.338Z,29.00
2023-05-07T02:30:27.196Z,29.52
2023-05-07T02:32:56.608Z,28.65
2023-05-07T02:35:25.958Z,32.45
2023-05-07T02:37:53.998Z,32.08
2023-05-07T02:40:22.249Z,31.05
2023-05-07T02:42:50.242Z,33.30
2023-05-07T02:45:18.415Z,31.20
2023-05-07T02:47:46.618Z,33.22
2023-05-07T02:50:16.113Z,31.10
2023-05-07T02:52:44.151Z,31.30
2023-05-07T02:55:12.824Z,31.33
2023-05-07T02:57:40.727Z,32.40
2023-05-07T03:00:16.633Z,32.28
2023-05-07T03:02:44.783Z,33.83
2023-05-07T03:05:13.695Z,30.25
2023-05-07T03:07:46.137Z,27.25
2023-05-07T03:10:14.249Z,31.40
2023-05-07T03:12:42.398Z,30.77
2023-05-07T03:15:12.400Z,30.73
2023-05-07T03:17:40.402Z,34.10
2023-05-07T03:20:11.100Z,32.65
2023-05-07T03:22:39.443Z,30.55
2023-05-07T03:25:10.818Z,35.55
2023-05-07T03:27:39.073Z,31.88
2023-05-07T03:30:08.805Z,29.52
2023-05-07T03:32:37.380Z,32.70
2023-05-07T03:35:05.841Z,34.03
2023-05-07T03:37:33.899Z,36.45
2023-05-07T03:40:01.849Z,34.55
2023-05-07T03:42:31.302Z,33.63
2023-05-07T03:44:59.276Z,30.95
2023-05-07T03:47:27.302Z,31.50
2023-05-07T03:49:55.936Z,29.98
2023-05-07T03:52:26.903Z,30.98
2023-05-07T03:54:55.071Z,30.88
2023-05-07T03:57:23.204Z,31.38
2023-05-07T03:59:52.540Z,35.13
2023-05-07T04:02:20.566Z,29.80
2023-05-07T04:04:50.829Z,32.05
2023-05-07T04:07:19.664Z,32.80
2023-05-07T04:09:47.639Z,31.15
2023-05-07T04:12:15.636Z,29.58
2023-05-07T04:14:43.616Z,30.25
2023-05-07T04:17:13.021Z,26.90
2023-05-07T04:19:41.039Z,28.65
2023-05-07T04:22:09.017Z,28.20
2023-05-07T04:24:37.027Z,27.55
2023-05-07T04:27:05.491Z,27.15
2023-05-07T04:29:33.454Z,26.25
2023-05-07T04:32:01.586Z,26.77
2023-05-07T04:34:30.961Z,28.10
2023-05-07T04:37:01.573Z,28.25
2023-05-07T04:39:29.577Z,30.45
2023-05-07T04:41:57.722Z,27.25
2023-05-07T04:44:26.030Z,28.58
2023-05-07T04:46:54.034Z,26.83
2023-05-07T04:49:22.047Z,25.17
2023-05-07T04:51:51.408Z,25.13
2023-05-07T04:54:19.409Z,28.02
2023-05-07T04:56:47.353Z,27.70
2023-05-07T04:59:15.518Z,25.10
2023-05-07T05:01:43.494Z,27.55
2023-05-07T05:04:12.336Z,24.98
2023-05-07T05:06:40.416Z,30.30
2023-05-07T05:09:10.051Z,31.38
2023-05-07T05:11:38.034Z,26.08
2023-05-07T05:14:06.345Z,27.25
2023-05-07T05:16:34.449Z,27.17
2023-05-07T05:19:03.944Z,26.63
2023-05-07T05:21:31.878Z,25.83
2023-05-07T05:24:00.002Z,27.25
2023-05-07T05:26:29.373Z,25.02
2023-05-07T05:28:57.367Z,28.27
2023-05-07T05:31:25.376Z,25.25
2023-05-07T05:33:53.354Z,26.83
2023-05-07T05:36:21.373Z,25.83
2023-05-07T05:38:49.278Z,27.50
2023-05-07T05:41:17.233Z,25.20
2023-05-07T05:43:46.521Z,27.08
2023-05-07T05:46:14.560Z,25.98
2023-05-07T05:48:42.530Z,25.75
2023-05-07T05:51:10.487Z,27.20
2023-05-07T05:53:38.428Z,25.40
2023-05-07T05:56:07.139Z,28.98
2023-05-07T05:58:35.146Z,26.98
2023-05-07T06:01:04.892Z,24.88
2023-05-07T06:03:33.451Z,25.50
2023-05-07T06:06:01.995Z,23.45
2023-05-07T06:08:31.819Z,25.40
2023-05-07T06:11:00.400Z,24.58
2023-05-07T06:13:28.469Z,23.88
2023-05-07T06:15:56.392Z,23.30
2023-05-07T06:18:26.026Z,22.17
2023-05-07T06:20:54.162Z,21.40
2023-05-07T06:23:22.886Z,22.67
2023-05-07T06:25:51.983Z,21.90
2023-05-07T06:28:20.025Z,22.02
2023-05-07T06:30:48.292Z,24.50
2023-05-07T06:33:16.245Z,26.35
2023-05-07T06:35:46.027Z,25.13
2023-05-07T06:38:13.967Z,23.48
2023-05-07T06:40:41.984Z,22.05
2023-05-07T06:43:09.956Z,23.30
2023-05-07T06:45:37.910Z,22.38
2023-05-07T06:48:06.485Z,21.30
2023-05-07T06:50:34.573Z,20.20
2023-05-07T06:53:04.296Z,21.13
2023-05-07T06:55:32.865Z,21.35
2023-05-07T06:58:02.172Z,24.65
2023-05-07T07:00:30.385Z,22.38
2023-05-07T07:02:58.601Z,21.83
2023-05-07T07:05:26.506Z,21.60
2023-05-07T07:07:54.589Z,20.77
2023-05-07T07:10:24.407Z,20.83
2023-05-07T07:12:53.472Z,19.65
2023-05-07T07:15:22.590Z,20.33
2023-05-07T07:17:51.002Z,20.80
2023-05-07T07:20:19.061Z,19.60
2023-05-07T07:22:47.085Z,20.63
2023-05-07T07:25:15.052Z,19.77
2023-05-07T07:27:44.347Z,20.23
2023-05-07T07:30:12.924Z,20.55
2023-05-07T07:32:41.044Z,20.48
2023-05-07T07:35:09.909Z,19.50
2023-05-07T07:37:37.934Z,18.98
2023-05-07T07:40:06.594Z,18.33
2023-05-07T07:42:34.532Z,17.77
2023-05-07T07:45:04.149Z,17.48
2023-05-07T07:47:32.149Z,18.38
2023-05-07T07:50:00.169Z,18.38
2023-05-07T07:52:28.201Z,16.90
2023-05-07T07:54:56.112Z,17.25
2023-05-07T07:57:24.078Z,16.75
2023-05-07T07:59:52.349Z,16.98
2023-05-07T08:02:21.718Z,17.15
2023-05-07T08:04:49.665Z,17.40
2023-05-07T08:07:19.427Z,16.65
2023-05-07T08:09:47.328Z,17.38
2023-05-07T08:12:15.440Z,16.67
2023-05-07T08:14:43.566Z,17.67
2023-05-07T08:17:11.799Z,16.55
2023-05-07T08:19:41.155Z,16.48
2023-05-07T08:22:09.237Z,16.38
2023-05-07T08:24:37.183Z,15.75
2023-05-07T08:27:05.296Z,15.55
2023-05-07T08:29:33.372Z,13.85
2023-05-07T08:32:01.402Z,14.48
2023-05-07T08:34:29.387Z,14.57
2023-05-07T08:36:58.726Z,13.48
2023-05-07T08:39:26.776Z,13.13
2023-05-07T08:41:58.089Z,11.90
2023-05-07T08:44:29.181Z,12.47
2023-05-07T08:46:58.749Z,10.13
2023-05-07T08:49:26.713Z,10.52
2023-05-07T08:51:54.926Z,10.85
2023-05-07T08:54:24.702Z,11.63
2023-05-07T08:56:52.714Z,11.27
2023-05-07T08:59:20.605Z,12.43
2023-05-07T09:01:48.738Z,12.68
2023-05-07T09:04:16.825Z,12.23
2023-05-07T09:06:44.879Z,11.23
2023-05-07T09:09:19.414Z,10.85
2023-05-07T09:11:48.742Z,11.25
2023-05-07T09:14:17.724Z,10.35
2023-05-07T09:16:45.773Z,8.77
2023-05-07T09:19:13.777Z,8.40
2023-05-07T09:21:41.695Z,8.02
2023-05-07T09:24:09.656Z,9.73
2023-05-07T09:26:37.562Z,10.35
2023-05-07T09:29:06.991Z,9.52
2023-05-07T09:31:38.252Z,11.98
2023-05-07T09:34:06.893Z,11.67
2023-05-07T09:36:34.893Z,12.27
2023-05-07T09:39:02.907Z,10.65
2023-05-07T09:41:32.931Z,12.63
2023-05-07T09:44:01.317Z,12.38
2023-05-07T09:46:33.091Z,11.57
2023-05-07T09:49:04.271Z,10.05
2023-05-07T09:51:36.123Z,10.85
2023-05-07T09:54:04.854Z,9.48
2023-05-07T09:56:33.315Z,11.05
2023-05-07T09:59:02.797Z,8.90
2023-05-07T10:01:33.572Z,8.02
2023-05-07T10:04:04.494Z,7.78
2023-05-07T10:06:32.610Z,7.60
2023-05-07T10:09:02.279Z,8.30
2023-05-07T10:11:30.424Z,8.10
2023-05-07T10:13:58.832Z,9.73
2023-05-07T10:16:29.244Z,9.18
2023-05-07T10:18:59.773Z,9.60
2023-05-07T10:21:29.725Z,8.93
2023-05-07T10:24:01.386Z,7.85
2023-05-07T10:26:31.924Z,7.60
2023-05-07T10:29:04.098Z,8.38
2023-05-07T10:34:14.306Z,8.13
2023-05-07T10:36:43.328Z,9.48
2023-05-07T10:39:12.213Z,10.50
2023-05-07T10:41:40.798Z,10.23
2023-05-07T10:44:08.845Z,8.75
2023-05-07T10:46:36.917Z,7.85
2023-05-07T10:49:17.201Z,6.40
2023-05-07T10:51:46.787Z,6.60
2023-05-07T10:54:22.073Z,7.05
2023-05-07T10:56:51.646Z,7.80
2023-05-07T10:59:41.805Z,7.85
2023-05-07T11:02:11.995Z,8.07
2023-05-07T11:04:42.684Z,8.73
2023-05-07T11:07:32.187Z,8.80
2023-05-07T11:10:08.691Z,8.73
2023-05-07T11:12:56.343Z,8.90
2023-05-07T11:15:45.397Z,9.20
2023-05-07T11:18:18.441Z,7.68
2023-05-07T11:20:52.980Z,7.60
2023-05-07T11:23:59.601Z,7.60
2023-05-07T11:26:29.274Z,8.27
2023-05-07T11:28:57.868Z,8.43
2023-05-07T11:31:29.577Z,7.15
2023-05-07T11:33:58.544Z,6.82
2023-05-07T11:36:33.616Z,7.13
2023-05-07T11:39:01.586Z,8.00
2023-05-07T11:41:36.874Z,7.55
2023-05-07T11:44:04.900Z,6.43
2023-05-07T11:46:32.931Z,6.55
2023-05-07T11:49:02.525Z,5.45
2023-05-07T11:51:32.779Z,5.30
2023-05-07T11:54:00.828Z,5.55
2023-05-07T11:56:28.930Z,5.35
2023-05-07T11:58:56.876Z,11.25
2023-05-07T12:01:24.823Z,12.98
2023-05-07T12:03:52.917Z,13.40
2023-05-07T12:06:21.229Z,14.43
2023-05-07T12:08:50.496Z,14.27
2023-05-07T12:11:24.183Z,13.98
2023-05-07T12:13:52.471Z,14.65
2023-05-07T12:16:21.253Z,15.07
2023-05-07T12:18:49.676Z,14.82
2023-05-07T12:21:18.332Z,14.90
2023-05-07T12:23:47.344Z,15.07
2023-05-07T12:26:16.696Z,18.58
2023-05-07T12:28:44.819Z,16.80
2023-05-07T12:31:12.895Z,16.10
2023-05-07T12:33:41.884Z,18.60
2023-05-07T12:36:10.417Z,19.67
2023-05-07T12:38:42.111Z,21.55
2023-05-07T12:41:11.983Z,18.30
2023-05-07T12:43:41.283Z,20.40
2023-05-07T12:46:10.012Z,20.67
2023-05-07T12:48:39.630Z,20.88
2023-05-07T12:51:08.660Z,20.23
2023-05-07T12:53:43.246Z,20.70
2023-05-07T12:56:11.283Z,22.23
2023-05-07T12:58:39.167Z,21.38
2023-05-07T13:01:11.008Z,20.58
2023-05-07T13:06:10.660Z,21.42
2023-05-07T13:08:41.362Z,20.58
2023-05-07T13:11:11.206Z,20.77
2023-05-07T13:13:40.849Z,19.63
2023-05-07T13:16:12.286Z,20.70
2023-05-07T13:18:41.822Z,19.83
2023-05-07T13:21:11.027Z,20.13
2023-05-07T13:23:39.646Z,20.40
2023-05-07T13:26:22.502Z,21.85
2023-05-07T13:28:54.116Z,21.95
2023-05-07T13:31:23.458Z,22.88
2023-05-07T13:33:51.585Z,22.10
2023-05-07T13:36:19.488Z,21.15
2023-05-07T13:38:47.437Z,22.77
2023-05-07T13:41:15.830Z,21.17
2023-05-07T13:43:43.784Z,23.13
2023-05-07T13:46:11.721Z,21.55
2023-05-07T13:48:40.970Z,23.40
2023-05-07T13:51:08.932Z,23.05
2023-05-07T13:53:36.894Z,23.42
2023-05-07T13:56:05.885Z,22.05
2023-05-07T13:58:33.964Z,23.05
2023-05-07T14:01:02.020Z,23.15
2023-05-07T14:03:30.786Z,23.83
2023-05-07T14:06:00.946Z,22.20
2023-05-07T14:08:31.805Z,22.73
2023-05-07T14:11:00.937Z,24.42
2023-05-07T14:13:29.071Z,23.60
2023-05-07T14:15:57.045Z,22.85
2023-05-07T14:18:24.941Z,22.33
2023-05-07T14:20:52.899Z,24.27
2023-05-07T14:23:27.339Z,23.70
2023-05-07T14:25:55.675Z,23.90
2023-05-07T14:28:23.650Z,23.83
2023-05-07T14:30:51.732Z,21.90
2023-05-07T14:33:19.711Z,21.38
2023-05-07T14:35:49.833Z,20.08
2023-05-07T14:38:17.920Z,22.02
2023-05-07T14:40:47.336Z,22.02
2023-05-07T14:43:15.231Z,21.70
2023-05-07T14:45:43.440Z,21.13
2023-05-07T14:48:15.969Z,20.23
2023-05-07T14:50:43.996Z,21.67
2023-05-07T14:53:11.922Z,21.73
2023-05-07T14:55:39.979Z,20.48
2023-05-07T14:58:09.342Z,20.98
2023-05-07T15:00:37.378Z,22.77
2023-05-07T15:03:09.018Z,20.08
2023-05-07T15:05:38.125Z,21.25
2023-05-07T15:08:06.453Z,21.88
2023-05-07T15:10:41.611Z,20.30
2023-05-07T15:13:15.277Z,18.60
2023-05-07T15:15:45.617Z,20.35
2023-05-07T15:18:13.570Z,19.65
2023-05-07T15:20:41.776Z,15.85
2023-05-07T15:23:12.971Z,17.25
2023-05-07T15:25:41.055Z,15.43
2023-05-07T15:28:10.337Z,15.43
2023-05-07T15:30:38.253Z,15.65
2023-05-07T15:33:06.507Z,16.15
2023-05-07T15:35:34.692Z,14.63
2023-05-07T15:38:03.974Z,16.00
2023-05-07T15:40:32.344Z,14.80
2023-05-07T15:43:01.151Z,14.85
2023-05-07T15:45:31.209Z,16.05
2023-05-07T15:47:59.384Z,14.32
2023-05-07T15:50:27.425Z,15.32
2023-05-07T15:52:56.956Z,13.55
2023-05-07T15:55:25.184Z,12.57
2023-05-07T15:57:55.012Z,12.98
2023-05-07T16:00:23.185Z,11.77
2023-05-07T16:02:52.571Z,10.10
2023-05-07T16:05:20.632Z,10.82
2023-05-07T16:07:49.021Z,8.77
2023-05-07T16:10:17.284Z,9.10
2023-05-07T16:12:46.018Z,9.30
2023-05-07T16:15:14.249Z,9.35
2023-05-07T16:17:42.247Z,9.90
2023-05-07T16:20:13.204Z,9.98
2023-05-07T16:22:41.407Z,10.80
2023-05-07T16:25:10.541Z,11.20
2023-05-07T16:27:38.581Z,11.63
2023-05-07T16:30:08.760Z,12.10
2023-05-07T16:32:37.004Z,12.30
2023-05-07T16:35:05.811Z,13.52
2023-05-07T16:37:37.657Z,13.35
2023-05-07T16:40:07.585Z,13.93
2023-05-07T16:42:35.572Z,13.65
2023-05-07T16:45:04.518Z,14.88
2023-05-07T16:47:32.700Z,16.38
2023-05-07T16:50:01.225Z,18.33
2023-05-07T16:52:30.800Z,19.60
2023-05-07T16:55:01.388Z,17.90
2023-05-07T16:57:30.389Z,17.30
2023-05-07T16:59:59.012Z,17.90
2023-05-07T17:02:27.075Z,17.20
2023-05-07T17:04:55.041Z,18.50
2023-05-07T17:07:22.934Z,18.48
2023-05-07T17:09:50.876Z,18.83
2023-05-07T17:12:20.349Z,19.52
2023-05-07T17:14:48.388Z,19.38
2023-05-07T17:17:16.354Z,19.15
2023-05-07T17:19:45.701Z,18.48
2023-05-07T17:22:13.664Z,19.52
2023-05-07T17:24:41.783Z,17.48
2023-05-07T17:27:09.944Z,16.60
2023-05-07T17:29:39.258Z,17.25
2023-05-07T17:32:08.451Z,15.45
2023-05-07T17:34:36.827Z,17.02
2023-05-07T17:37:04.783Z,16.55
2023-05-07T17:39:32.699Z,16.75
2023-05-07T17:42:00.654Z,16.27
2023-05-07T17:44:28.649Z,17.02
2023-05-07T17:46:57.991Z,18.23
2023-05-07T17:49:25.959Z,17.65
2023-05-07T17:51:55.556Z,16.83
2023-05-07T17:54:26.094Z,16.95
2023-05-07T17:56:54.652Z,16.73
2023-05-07T17:59:22.695Z,18.13
2023-05-07T18:01:50.773Z,17.27
2023-05-07T18:04:21.520Z,17.88
2023-05-07T18:06:49.483Z,15.13
2023-05-07T18:09:17.453Z,15.95
2023-05-07T18:11:45.378Z,15.43
2023-05-07T18:14:13.600Z,15.65
2023-05-07T18:16:41.549Z,15.15
2023-05-07T18:19:09.464Z,14.68
2023-05-07T18:21:38.714Z,15.80
2023-05-07T18:24:07.388Z,15.52
2023-05-07T18:26:35.536Z,16.08
2023-05-07T18:29:03.499Z,15.82
2023-05-07T18:31:31.444Z,16.15
2023-05-07T18:33:59.570Z,15.38
2023-05-07T18:36:28.202Z,16.38
2023-05-07T18:38:57.581Z,16.02
2023-05-07T18:41:25.661Z,15.50
2023-05-07T18:43:53.642Z,15.48
2023-05-07T18:46:21.592Z,15.00
2023-05-07T18:48:49.545Z,14.25
2023-05-07T18:51:17.690Z,13.95
2023-05-07T18:53:45.664Z,13.02
2023-05-07T18:56:15.188Z,12.73
2023-05-07T18:58:43.145Z,12.57
2023-05-07T19:01:11.190Z,12.75
2023-05-07T19:03:39.141Z,12.82
2023-05-07T19:06:07.535Z,13.00
2023-05-07T19:08:35.502Z,13.65
2023-05-07T19:11:03.852Z,13.18
2023-05-07T19:13:34.540Z,13.63
2023-05-07T19:16:02.518Z,13.48
2023-05-07T19:18:31.844Z,13.40
2023-05-07T19:20:59.761Z,14.30
2023-05-07T19:23:27.848Z,13.82
2023-05-07T19:25:55.812Z,13.77
2023-05-07T19:28:25.640Z,13.02
2023-05-07T19:30:54.936Z,13.65
2023-05-07T19:33:24.555Z,14.75
2023-05-07T19:35:53.962Z,15.23
2023-05-07T19:38:21.872Z,14.32
2023-05-07T19:40:49.867Z,15.35
2023-05-07T19:43:17.772Z,15.15
2023-05-07T19:45:45.804Z,14.50
2023-05-07T19:48:15.674Z,15.25
2023-05-07T19:50:44.075Z,15.15
2023-05-07T19:53:11.974Z,14.88
2023-05-07T19:55:39.921Z,16.60
2023-05-07T19:58:07.976Z,15.52
2023-05-07T20:00:36.155Z,17.95
2023-05-07T20:03:04.157Z,16.80
2023-05-07T20:05:33.600Z,20.13
2023-05-07T20:08:02.478Z,20.13
2023-05-07T20:10:30.447Z,20.50
2023-05-07T20:12:58.365Z,22.35
2023-05-07T20:15:26.346Z,19.83
2023-05-07T20:17:54.282Z,21.15
2023-05-07T20:20:23.942Z,20.08
2023-05-07T20:22:53.380Z,22.17
2023-05-07T20:25:21.528Z,21.92
2023-05-07T20:27:49.474Z,20.15
2023-05-07T20:30:18.865Z,21.75
2023-05-07T20:32:46.831Z,21.75
2023-05-07T20:35:14.902Z,21.42
2023-05-07T20:37:42.872Z,21.80
2023-05-07T20:40:12.824Z,24.08
2023-05-07T20:42:42.630Z,25.77
2023-05-07T20:45:12.091Z,25.73
2023-05-07T20:47:40.036Z,27.58
2023-05-07T20:50:08.649Z,30.60
2023-05-07T20:52:36.752Z,34.10
2023-05-07T20:55:05.089Z,34.92
2023-05-07T20:57:34.399Z,33.08
2023-05-07T21:00:02.322Z,32.40
2023-05-07T21:02:30.411Z,36.63
2023-05-07T21:04:58.483Z,32.28
2023-05-07T21:07:26.512Z,32.00
2023-05-07T21:09:54.417Z,34.50
2023-05-07T21:12:23.636Z,32.72
2023-05-07T21:14:52.809Z,35.05
2023-05-07T21:17:20.736Z,36.38
2023-05-07T21:19:49.661Z,36.30
2023-05-07T21:22:19.864Z,36.38
2023-05-07T21:24:47.761Z,33.75
2023-05-07T21:27:15.823Z,36.53
2023-05-07T21:29:43.714Z,39.10
2023-05-07T21:32:12.964Z,36.88
2023-05-07T21:34:40.865Z,34.75
2023-05-07T21:37:09.118Z,37.05
2023-05-07T21:39:37.209Z,35.58
2023-05-07T21:42:05.504Z,38.40
2023-05-07T21:44:33.567Z,36.15
2023-05-07T21:47:01.622Z,35.55
2023-05-07T21:49:31.192Z,38.40
2023-05-07T21:51:59.225Z,37.40
2023-05-07T21:54:27.131Z,37.25
2023-05-07T21:56:56.097Z,35.30
2023-05-07T21:59:24.169Z,36.45
2023-05-07T22:01:52.140Z,37.10
2023-05-07T22:04:20.345Z,34.50
2023-05-07T22:06:50.076Z,35.03
2023-05-07T22:09:18.046Z,38.50
2023-05-07T22:11:46.254Z,39.55
2023-05-07T22:14:14.128Z,40.33
2023-05-07T22:16:42.147Z,38.05
2023-05-07T22:19:10.516Z,35.50
2023-05-07T22:21:38.413Z,37.53
2023-05-07T22:24:08.580Z,34.83
2023-05-07T22:26:36.444Z,31.80
2023-05-07T22:29:04.381Z,33.17
2023-05-07T22:31:32.361Z,37.30
2023-05-07T22:34:01.224Z,33.63
2023-05-07T22:36:29.174Z,35.53
2023-05-07T22:38:57.179Z,36.08
2023-05-07T22:41:26.603Z,40.00
2023-05-07T22:43:54.536Z,38.28
2023-05-07T22:46:22.511Z,38.25
2023-05-07T22:48:50.535Z,37.25
2023-05-07T22:51:18.543Z,36.50
2023-05-07T22:53:46.840Z,42.53
2023-05-07T22:56:15.732Z,40.50
2023-05-07T22:58:44.981Z,43.78
2023-05-07T23:01:13.964Z,46.60
2023-05-07T23:03:42.127Z,44.88
2023-05-07T23:06:10.639Z,46.20
2023-05-07T23:08:38.572Z,48.45
2023-05-07T23:11:06.596Z,46.80
2023-05-07T23:13:34.850Z,52.47
2023-05-07T23:16:04.344Z,50.33
2023-05-07T23:18:32.643Z,50.50
2023-05-07T23:21:00.590Z,48.80
2023-05-07T23:23:33.469Z,53.22
2023-05-07T23:26:01.386Z,52.92
2023-05-07T23:28:29.264Z,55.88
2023-05-07T23:30:57.278Z,53.55
2023-05-07T23:33:26.551Z,51.08
2023-05-07T23:36:02.993Z,52.58
2023-05-07T23:38:31.151Z,49.03
2023-05-07T23:40:59.205Z,50.80
2023-05-07T23:43:27.625Z,50.22
2023-05-07T23:45:55.502Z,50.05
2023-05-07T23:48:23.500Z,57.67
2023-05-07T23:50:52.778Z,50.33
2023-05-07T23:53:20.881Z,57.67
2023-05-07T23:55:48.761Z,56.45
2023-05-07T23:58:16.651Z,56.30
